Date,TemperatureHighF,TemperatureAvgF,TemperatureLowF,DewpointHighF,DewpointAvgF,DewpointLowF,HumidityHigh,HumidityAvg,HumidityLow,PressureMaxIn,PressureMinIn,WindSpeedMaxMPH,WindSpeedAvgMPH,GustSpeedMaxMPH,PrecipitationSumIn
2013-4-1,50.9,42.7,31.6,34.0,29.1,22.0,83,60,36,30.06,29.91,11,3,14,0.00
2013-4-2,40.1,37.3,35.1,34.0,32.9,31.0,92,84,73,30.15,30.04,6,1,9,0.00
2013-4-3,59.5,45.9,35.9,37.0,31.8,24.0,93,64,26,30.18,30.04,6,1,13,0.00
2013-4-4,67.9,53.1,34.7,31.0,26.0,18.0,77,40,15,30.10,29.88,6,1,11,0.00
2013-4-5,70.3,57.1,44.0,34.0,24.4,16.0,56,32,13,29.87,29.51,15,2,34,0.00
2013-4-6,62.5,53.9,39.8,32.0,22.7,18.0,51,31,19,29.78,29.69,14,2,28,0.00
2013-4-7,62.1,52.3,39.8,32.0,26.2,19.0,71,40,20,29.71,29.54,15,3,22,0.00
2013-4-8,62.6,44.8,26.9,33.0,28.4,24.0,90,56,28,29.74,29.28,18,3,23,0.00
2013-4-9,26.7,17.0,11.6,24.0,13.1,7.0,89,84,79,30.44,29.77,10,3,15,0.00
2013-4-10,26.9,17.9,7.2,16.0,10.7,3.0,85,74,61,30.45,30.12,5,1,9,0.00
2013-4-11,55.3,37.6,20.9,33.0,25.1,15.0,83,63,33,30.11,29.88,9,2,21,0.00
2013-4-12,57.7,41.5,30.6,33.0,29.1,13.0,87,65,17,29.95,29.83,10,2,17,0.00
2013-4-13,66.7,50.4,29.6,32.0,21.8,8.0,90,45,11,29.92,29.33,13,2,21,0.00
2013-4-14,49.9,43.3,37.3,38.0,17.1,-1.0,88,39,13,29.72,29.38,15,5,30,0.00
2013-4-15,38.5,27.8,22.8,26.0,22.7,11.0,91,83,32,30.14,29.68,10,2,13,0.00
2013-4-16,32.9,28.1,22.9,28.0,24.5,20.0,91,86,79,30.15,29.97,7,2,14,0.00
2013-4-17,29.6,25.9,20.0,27.0,23.5,18.0,92,90,89,30.31,30.02,11,3,16,0.00
2013-4-18,36.4,26.3,15.3,19.0,14.5,6.0,89,65,32,30.35,30.27,7,2,15,0.00
2013-4-19,50.8,41.2,24.9,25.0,16.8,10.0,70,39,25,30.32,29.96,11,2,17,0.00
2013-4-20,57.5,47.0,37.7,35.0,28.2,22.0,65,49,31,29.96,29.82,7,2,11,0.00
2013-4-21,61.7,51.3,38.4,31.0,22.2,17.0,62,35,18,30.00,29.85,10,2,16,0.00
2013-4-22,53.5,34.6,22.8,34.0,26.0,20.0,90,73,43,30.36,29.78,9,2,22,0.00
2013-4-23,33.5,25.1,20.5,21.0,18.2,16.0,91,76,53,30.42,30.30,6,1,7,0.00
2013-4-24,53.9,38.2,19.8,22.0,14.6,7.0,81,44,15,30.36,30.21,7,2,18,0.00
2013-4-25,63.2,48.0,28.1,29.0,17.1,7.0,68,35,11,30.22,29.85,6,1,9,0.00
2013-4-26,65.5,53.7,35.1,26.0,18.3,11.0,67,29,13,30.12,29.93,9,1,11,0.00
2013-4-27,72.9,58.1,36.6,25.0,15.4,4.0,60,25,7,30.11,29.88,8,2,17,0.00
2013-4-28,78.2,63.7,41.7,31.0,21.5,15.0,49,23,10,29.88,29.60,11,2,15,0.00
2013-4-29,77.6,65.7,47.2,34.0,23.9,11.0,59,25,8,29.71,29.36,14,2,18,0.00
2013-4-30,62.8,50.4,37.6,38.0,32.6,20.0,87,53,19,29.90,29.38,9,2,15,0.00